createdAt,value
2023-05-19T00:01:49.377Z,35.78
2023-05-19T00:04:18.802Z,30.40
2023-05-19T00:06:52.500Z,36.88
2023-05-19T00:09:22.117Z,35.08
2023-05-19T00:11:51.462Z,31.75
2023-05-19T00:14:20.769Z,35.72
2023-05-19T00:16:50.150Z,34.05
2023-05-19T00:19:20.732Z,28.23
2023-05-19T00:21:50.056Z,34.10
2023-05-19T00:24:19.106Z,33.72
2023-05-19T00:27:08.847Z,30.10
2023-05-19T00:29:37.914Z,27.23
2023-05-19T00:32:07.434Z,35.40
2023-05-19T00:34:36.496Z,33.40
2023-05-19T00:37:05.622Z,30.90
2023-05-19T00:39:34.682Z,30.80
2023-05-19T00:42:04.098Z,29.90
2023-05-19T00:44:33.403Z,33.13
2023-05-19T00:47:02.800Z,26.85
2023-05-19T00:49:32.027Z,28.08
2023-05-19T00:52:03.089Z,34.88
2023-05-19T00:54:32.482Z,37.55
2023-05-19T00:57:02.332Z,29.02
2023-05-19T00:59:31.467Z,24.40
2023-05-19T01:02:00.492Z,29.52
2023-05-19T01:04:30.926Z,36.33
2023-05-19T01:07:00.181Z,35.33
2023-05-19T01:09:29.292Z,31.60
2023-05-19T01:11:58.380Z,34.05
2023-05-19T01:14:27.774Z,39.78
2023-05-19T01:17:43.644Z,32.20
2023-05-19T01:20:30.891Z,32.30
2023-05-19T01:23:37.789Z,31.42
2023-05-19T01:26:28.600Z,29.52
2023-05-19T01:29:34.465Z,30.92
2023-05-19T01:32:08.351Z,32.97
2023-05-19T01:34:45.271Z,26.90
2023-05-19T01:37:16.556Z,29.25
2023-05-19T01:39:46.938Z,36.67
2023-05-19T01:42:16.814Z,33.58
2023-05-19T01:44:46.812Z,29.42
2023-05-19T01:47:16.788Z,29.70
2023-05-19T01:49:45.862Z,32.10
2023-05-19T01:52:14.886Z,26.60
2023-05-19T01:54:43.977Z,43.45
2023-05-19T01:57:34.564Z,34.05
2023-05-19T02:00:19.373Z,26.48
2023-05-19T02:03:16.297Z,28.02
2023-05-19T02:05:58.419Z,30.27
2023-05-19T02:08:43.962Z,24.60
2023-05-19T02:11:39.133Z,30.73
2023-05-19T02:14:37.121Z,38.03
2023-05-19T02:17:07.324Z,33.70
2023-05-19T02:19:41.683Z,25.23
2023-05-19T02:22:10.755Z,39.60
2023-05-19T02:24:40.646Z,29.42
2023-05-19T02:27:12.230Z,30.73
2023-05-19T02:29:44.075Z,29.35
2023-05-19T02:32:13.636Z,29.60
2023-05-19T02:34:46.685Z,28.48
2023-05-19T02:37:18.941Z,28.23
2023-05-19T02:39:47.990Z,24.13
2023-05-19T02:42:19.505Z,25.88
2023-05-19T02:44:48.873Z,21.50
2023-05-19T02:47:17.980Z,25.38
2023-05-19T02:49:47.260Z,24.15
2023-05-19T02:52:16.306Z,29.02
2023-05-19T02:54:45.415Z,33.75
2023-05-19T02:57:14.465Z,22.45
2023-05-19T02:59:44.066Z,28.05
2023-05-19T03:02:13.161Z,27.35
2023-05-19T03:04:45.061Z,27.55
2023-05-19T03:07:17.603Z,19.60
2023-05-19T03:09:46.690Z,27.75
2023-05-19T03:12:15.695Z,31.75
2023-05-19T03:14:45.490Z,29.95
2023-05-19T03:17:14.728Z,26.85
2023-05-19T03:19:43.868Z,31.58
2023-05-19T03:22:12.936Z,29.27
2023-05-19T03:24:41.974Z,23.33
2023-05-19T03:27:10.961Z,29.35
2023-05-19T03:29:40.018Z,24.38
2023-05-19T03:32:09.320Z,25.60
2023-05-19T03:34:38.385Z,25.08
2023-05-19T03:37:07.517Z,29.92
2023-05-19T03:39:36.580Z,27.75
2023-05-19T03:42:05.705Z,34.50
2023-05-19T03:44:34.708Z,24.25
2023-05-19T03:47:03.723Z,28.45
2023-05-19T03:49:32.759Z,22.35
2023-05-19T03:52:04.477Z,27.90
2023-05-19T03:54:33.513Z,27.85
2023-05-19T03:57:03.369Z,25.10
2023-05-19T03:59:32.712Z,20.23
2023-05-19T04:02:01.806Z,21.90
2023-05-19T04:04:31.375Z,24.77
2023-05-19T04:07:00.451Z,24.42
2023-05-19T04:09:29.720Z,26.55
2023-05-19T04:11:58.782Z,24.70
2023-05-19T04:14:27.970Z,20.83
2023-05-19T04:16:57.277Z,20.88
2023-05-19T04:19:26.398Z,21.75
2023-05-19T04:21:55.456Z,26.20
2023-05-19T04:24:24.493Z,32.70
2023-05-19T04:26:54.894Z,24.63
2023-05-19T04:29:25.414Z,25.27
2023-05-19T04:31:54.469Z,23.95
2023-05-19T04:34:26.343Z,21.15
2023-05-19T04:36:56.694Z,26.58
2023-05-19T04:39:26.116Z,22.80
2023-05-19T04:41:58.170Z,19.55
2023-05-19T04:44:32.061Z,25.67
2023-05-19T04:47:01.311Z,24.58
2023-05-19T04:49:30.406Z,22.45
2023-05-19T04:51:59.588Z,21.90
2023-05-19T04:54:28.824Z,28.48
2023-05-19T04:56:57.890Z,19.92
2023-05-19T04:59:27.039Z,21.10
2023-05-19T05:01:57.354Z,23.08
2023-05-19T05:04:27.248Z,24.65
2023-05-19T05:06:56.400Z,26.05
2023-05-19T05:09:25.412Z,24.73
2023-05-19T05:11:54.785Z,21.10
2023-05-19T05:14:24.340Z,22.75
2023-05-19T05:16:53.862Z,21.30
2023-05-19T05:19:23.456Z,25.08
2023-05-19T05:21:52.832Z,26.05
2023-05-19T05:24:22.335Z,26.92
2023-05-19T05:26:54.783Z,28.58
2023-05-19T05:29:23.850Z,27.55
2023-05-19T05:31:53.061Z,26.02
2023-05-19T05:34:22.388Z,20.70
2023-05-19T05:36:51.415Z,20.92
2023-05-19T05:39:20.501Z,26.13
2023-05-19T05:41:49.600Z,17.60
2023-05-19T05:44:18.620Z,17.25
2023-05-19T05:46:48.051Z,24.23
2023-05-19T05:49:17.379Z,20.10
2023-05-19T05:51:57.954Z,22.33
2023-05-19T05:54:34.160Z,18.33
2023-05-19T05:57:03.832Z,22.42
2023-05-19T05:59:34.994Z,21.98
2023-05-19T06:02:04.161Z,20.65
2023-05-19T06:04:33.475Z,16.98
2023-05-19T06:07:03.074Z,24.08
2023-05-19T06:09:32.242Z,27.27
2023-05-19T06:12:01.589Z,18.58
2023-05-19T06:14:30.607Z,17.73
2023-05-19T06:16:59.680Z,22.27
2023-05-19T06:19:28.790Z,23.60
2023-05-19T06:21:57.870Z,17.15
2023-05-19T06:24:27.124Z,21.02
2023-05-19T06:26:56.313Z,21.98
2023-05-19T06:29:25.359Z,20.95
2023-05-19T06:31:54.529Z,22.80
2023-05-19T06:34:23.705Z,21.67
2023-05-19T06:36:52.783Z,19.70
2023-05-19T06:39:21.829Z,17.02
2023-05-19T06:41:50.933Z,19.80
2023-05-19T06:44:21.172Z,26.95
2023-05-19T06:46:50.526Z,18.10
2023-05-19T06:49:21.936Z,23.40
2023-05-19T06:51:51.026Z,19.65
2023-05-19T06:54:20.118Z,19.38
2023-05-19T06:56:49.149Z,27.55
2023-05-19T06:59:18.353Z,23.38
2023-05-19T07:01:47.368Z,21.85
2023-05-19T07:04:16.656Z,21.50
2023-05-19T07:06:45.803Z,18.40
2023-05-19T07:09:15.181Z,22.70
2023-05-19T07:11:44.691Z,16.27
2023-05-19T07:14:13.846Z,16.08
2023-05-19T07:16:43.022Z,19.15
2023-05-19T07:19:12.278Z,23.17
2023-05-19T07:21:41.322Z,14.40
2023-05-19T07:24:10.419Z,17.33
2023-05-19T07:26:39.490Z,16.50
2023-05-19T07:29:08.542Z,19.10
2023-05-19T07:31:37.627Z,17.27
2023-05-19T07:34:09.840Z,24.95
2023-05-19T07:36:39.266Z,20.77
2023-05-19T07:39:08.400Z,20.13
2023-05-19T07:41:37.380Z,21.05
2023-05-19T07:44:08.840Z,19.05
2023-05-19T07:46:38.912Z,18.67
2023-05-19T07:49:07.967Z,20.08
2023-05-19T07:51:37.014Z,16.33
2023-05-19T07:54:06.287Z,20.95
2023-05-19T07:56:35.345Z,18.45
2023-05-19T07:59:05.233Z,15.70
2023-05-19T08:01:34.703Z,23.25
2023-05-19T08:04:04.747Z,21.20
2023-05-19T08:06:33.849Z,24.08
2023-05-19T08:09:03.195Z,16.63
2023-05-19T08:11:32.451Z,19.08
2023-05-19T08:14:01.604Z,23.15
2023-05-19T08:16:30.676Z,18.58
2023-05-19T08:19:03.317Z,20.67
2023-05-19T08:21:35.680Z,20.27
2023-05-19T08:24:07.128Z,24.63
2023-05-19T08:26:37.815Z,18.05
2023-05-19T08:29:11.575Z,20.67
2023-05-19T08:31:40.616Z,20.73
2023-05-19T08:34:09.711Z,15.82
2023-05-19T08:36:39.159Z,18.25
2023-05-19T08:39:08.240Z,20.15
2023-05-19T08:41:37.326Z,16.25
2023-05-19T08:44:07.175Z,18.48
2023-05-19T08:46:36.702Z,23.40
2023-05-19T08:49:13.355Z,26.88
2023-05-19T08:51:57.312Z,30.65
2023-05-19T08:54:31.518Z,20.67
2023-05-19T08:57:00.712Z,16.92
2023-05-19T08:59:30.524Z,24.73
2023-05-19T09:01:59.715Z,18.88
2023-05-19T09:04:30.121Z,18.88
2023-05-19T09:07:03.844Z,17.58
2023-05-19T09:09:33.071Z,18.67
2023-05-19T09:12:02.106Z,21.58
2023-05-19T09:14:32.032Z,17.50
2023-05-19T09:17:01.085Z,22.58
2023-05-19T09:19:33.368Z,28.92
2023-05-19T09:22:05.857Z,26.57
2023-05-19T09:24:36.252Z,22.70
2023-05-19T09:27:05.457Z,22.30
2023-05-19T09:29:34.553Z,25.48
2023-05-19T09:32:06.469Z,19.42
2023-05-19T09:34:35.553Z,41.15
2023-05-19T09:37:04.910Z,16.80
2023-05-19T09:39:34.478Z,22.77
2023-05-19T09:42:06.845Z,30.65
2023-05-19T09:44:37.542Z,24.30
2023-05-19T09:47:06.769Z,35.60
2023-05-19T09:49:35.773Z,18.52
2023-05-19T09:52:05.483Z,21.60
2023-05-19T09:54:36.362Z,18.80
2023-05-19T09:57:08.953Z,21.20
2023-05-19T09:59:40.270Z,21.55
2023-05-19T10:02:18.371Z,20.98
2023-05-19T10:04:49.724Z,19.05
2023-05-19T10:07:20.804Z,21.52
2023-05-19T10:09:51.862Z,16.75
2023-05-19T10:12:21.888Z,22.67
2023-05-19T10:14:54.246Z,19.08
2023-05-19T10:17:23.794Z,17.93
2023-05-19T10:19:53.998Z,20.13
2023-05-19T10:22:23.504Z,23.27
2023-05-19T10:24:52.642Z,25.48
2023-05-19T10:27:22.286Z,23.05
2023-05-19T10:29:53.281Z,21.70
2023-05-19T10:32:26.356Z,19.85
2023-05-19T10:37:57.718Z,22.25
2023-05-19T10:40:34.661Z,17.80
2023-05-19T10:43:40.717Z,21.33
2023-05-19T10:46:09.869Z,25.80
2023-05-19T10:48:38.886Z,16.30
2023-05-19T10:51:13.364Z,19.77
2023-05-19T10:53:48.438Z,27.17
2023-05-19T10:56:35.881Z,20.67
2023-05-19T10:59:05.924Z,21.67
2023-05-19T11:01:36.734Z,20.17
2023-05-19T11:04:15.014Z,24.63
2023-05-19T11:06:53.495Z,24.02
2023-05-19T11:09:37.840Z,19.65
2023-05-19T11:12:11.830Z,23.95
2023-05-19T11:14:42.331Z,22.83
2023-05-19T11:17:16.669Z,32.40
2023-05-19T11:19:57.046Z,24.20
2023-05-19T11:22:29.091Z,22.38
2023-05-19T11:24:59.051Z,29.90
2023-05-19T11:27:33.864Z,27.10
2023-05-19T11:30:21.129Z,28.30
2023-05-19T11:32:50.968Z,32.17
2023-05-19T11:35:22.620Z,28.48
2023-05-19T11:37:53.559Z,24.85
2023-05-19T11:40:24.751Z,26.23
2023-05-19T11:42:53.782Z,27.30
2023-05-19T11:45:30.782Z,28.10
2023-05-19T11:48:03.133Z,37.08
2023-05-19T11:50:33.941Z,35.37
2023-05-19T11:53:03.451Z,28.23
2023-05-19T11:55:32.770Z,30.83
2023-05-19T11:58:04.987Z,32.40
2023-05-19T12:00:42.014Z,40.40
2023-05-19T12:03:11.587Z,30.83
2023-05-19T12:05:47.277Z,38.10
2023-05-19T12:08:22.752Z,30.15
2023-05-19T12:10:52.183Z,39.33
2023-05-19T12:13:22.253Z,29.75
2023-05-19T12:15:54.480Z,32.95
2023-05-19T12:18:23.616Z,34.17
2023-05-19T12:20:52.788Z,35.67
2023-05-19T12:23:22.012Z,28.55
2023-05-19T12:25:51.914Z,37.08
2023-05-19T12:28:22.339Z,37.58
2023-05-19T12:30:54.980Z,36.20
2023-05-19T12:33:25.632Z,40.20
2023-05-19T12:35:56.496Z,41.20
2023-05-19T12:38:25.721Z,40.35
2023-05-19T12:40:54.777Z,42.13
2023-05-19T12:43:24.831Z,38.00
2023-05-19T12:45:54.556Z,50.10
2023-05-19T12:48:26.918Z,48.72
2023-05-19T12:50:56.713Z,41.10
2023-05-19T12:53:29.714Z,44.95
2023-05-19T12:55:58.815Z,47.92
2023-05-19T12:58:27.957Z,44.45
2023-05-19T13:01:01.624Z,38.67
2023-05-19T13:03:30.871Z,43.90
2023-05-19T13:06:01.031Z,36.72
2023-05-19T13:08:31.027Z,39.90
2023-05-19T13:11:00.044Z,34.42
2023-05-19T13:13:29.157Z,41.05
2023-05-19T13:15:58.234Z,34.88
2023-05-19T13:18:28.830Z,32.83
2023-05-19T13:20:57.845Z,32.50
2023-05-19T13:23:27.509Z,36.30
2023-05-19T13:25:56.513Z,32.30
2023-05-19T13:28:25.503Z,28.88
2023-05-19T13:30:54.650Z,38.20
2023-05-19T13:33:23.798Z,28.58
2023-05-19T13:35:52.846Z,26.50
2023-05-19T13:38:21.837Z,23.70
2023-05-19T13:40:50.893Z,32.97
2023-05-19T13:43:19.974Z,25.42
2023-05-19T13:45:49.181Z,28.77
2023-05-19T13:48:18.253Z,27.45
2023-05-19T13:50:47.326Z,27.73
2023-05-19T13:53:16.395Z,25.25
2023-05-19T13:55:45.430Z,31.00
2023-05-19T13:58:15.958Z,38.33
2023-05-19T14:00:44.978Z,30.38
2023-05-19T14:03:14.617Z,28.08
2023-05-19T14:05:43.716Z,36.38
2023-05-19T14:08:13.501Z,27.08
2023-05-19T14:10:43.400Z,26.98
2023-05-19T14:13:31.026Z,30.13
2023-05-19T14:16:03.051Z,31.30
2023-05-19T14:18:33.644Z,28.35
2023-05-19T14:21:02.772Z,29.77
2023-05-19T14:23:32.188Z,28.02
2023-05-19T14:26:01.233Z,30.90
2023-05-19T14:28:30.429Z,28.77
2023-05-19T14:30:59.630Z,35.10
2023-05-19T14:33:29.748Z,28.63
2023-05-19T14:36:01.792Z,31.17
2023-05-19T14:38:30.905Z,30.75
2023-05-19T14:41:00.002Z,28.02
2023-05-19T14:43:29.038Z,36.38
2023-05-19T14:45:58.789Z,29.33
2023-05-19T14:48:27.876Z,29.67
2023-05-19T14:50:57.079Z,30.50
2023-05-19T14:53:26.136Z,29.70
2023-05-19T14:55:55.170Z,27.65
2023-05-19T14:58:28.722Z,32.30
2023-05-19T15:01:01.220Z,25.90
2023-05-19T15:03:30.316Z,33.88
2023-05-19T15:05:59.366Z,27.20
2023-05-19T15:08:28.418Z,34.70
2023-05-19T15:10:57.491Z,28.98
2023-05-19T15:13:27.484Z,31.98
2023-05-19T15:16:12.422Z,31.05
2023-05-19T15:18:45.186Z,39.38
2023-05-19T15:21:14.576Z,31.58
2023-05-19T15:23:43.562Z,31.75
2023-05-19T15:26:12.699Z,29.60
2023-05-19T15:28:42.089Z,32.45
2023-05-19T15:31:11.155Z,44.90
2023-05-19T15:33:40.252Z,35.88
2023-05-19T15:36:09.245Z,33.33
2023-05-19T15:38:38.476Z,38.13
2023-05-19T15:41:09.383Z,29.23
2023-05-19T15:43:38.548Z,29.85
2023-05-19T15:46:07.752Z,36.08
2023-05-19T15:48:36.964Z,35.80
2023-05-19T15:51:06.227Z,28.42
2023-05-19T15:53:35.244Z,30.73
2023-05-19T15:56:04.981Z,31.33
2023-05-19T15:58:33.961Z,39.92
2023-05-19T16:01:03.351Z,27.15
2023-05-19T16:03:32.752Z,35.80
2023-05-19T16:06:02.319Z,34.22
2023-05-19T16:08:31.493Z,30.58
2023-05-19T16:11:00.579Z,29.05
2023-05-19T16:13:31.596Z,35.58
2023-05-19T16:16:00.899Z,32.40
2023-05-19T16:18:33.152Z,32.35
2023-05-19T16:21:02.214Z,29.67
2023-05-19T16:23:31.342Z,33.58
2023-05-19T16:26:00.369Z,29.95
2023-05-19T16:28:29.896Z,32.97
2023-05-19T16:31:02.434Z,29.92
2023-05-19T16:33:31.801Z,34.80
2023-05-19T16:36:01.186Z,27.95
2023-05-19T16:38:30.242Z,34.92
2023-05-19T16:40:59.282Z,31.33
2023-05-19T16:43:28.243Z,31.15
2023-05-19T16:45:58.286Z,39.92
2023-05-19T16:48:27.489Z,36.30
2023-05-19T16:50:56.540Z,35.15
2023-05-19T16:53:25.590Z,45.38
2023-05-19T16:55:54.671Z,35.60
2023-05-19T16:58:23.768Z,35.03
2023-05-19T17:00:56.014Z,29.42
2023-05-19T17:03:25.264Z,39.10
2023-05-19T17:05:54.450Z,30.75
2023-05-19T17:08:23.448Z,31.92
2023-05-19T17:10:52.657Z,29.10
2023-05-19T17:13:21.832Z,33.88
2023-05-19T17:15:53.910Z,31.65
2023-05-19T17:18:22.930Z,36.03
2023-05-19T17:20:52.202Z,33.35
2023-05-19T17:23:21.264Z,31.30
2023-05-19T17:25:50.261Z,34.10
2023-05-19T17:28:19.301Z,34.50
2023-05-19T17:30:48.377Z,34.78
2023-05-19T17:33:17.546Z,46.35
2023-05-19T17:35:46.703Z,36.05
2023-05-19T17:38:15.666Z,35.13
2023-05-19T17:40:44.694Z,35.55
2023-05-19T17:43:13.912Z,38.10
2023-05-19T17:45:42.981Z,36.03
2023-05-19T17:48:12.683Z,35.55
2023-05-19T17:50:41.702Z,34.00
2023-05-19T17:53:10.923Z,37.67
2023-05-19T17:55:40.244Z,35.30
2023-05-19T17:58:09.804Z,33.80
2023-05-19T18:00:39.079Z,32.67
2023-05-19T18:03:08.603Z,35.50
2023-05-19T18:05:38.975Z,39.08
2023-05-19T18:08:11.991Z,34.55
2023-05-19T18:10:43.163Z,39.07
2023-05-19T18:13:15.401Z,36.42
2023-05-19T18:15:44.761Z,33.60
2023-05-19T18:18:14.248Z,38.92
2023-05-19T18:20:45.988Z,38.63
2023-05-19T18:23:15.123Z,34.50
2023-05-19T18:25:51.805Z,37.20
2023-05-19T18:28:20.840Z,42.58
2023-05-19T18:30:49.824Z,33.00
2023-05-19T18:33:18.803Z,32.72
2023-05-19T18:35:48.521Z,38.17
2023-05-19T18:38:17.696Z,36.33
2023-05-19T18:40:46.815Z,36.17
2023-05-19T18:43:15.797Z,39.38
2023-05-19T18:45:44.825Z,36.97
2023-05-19T18:48:14.091Z,36.90
2023-05-19T18:50:45.314Z,40.22
2023-05-19T18:53:14.341Z,30.48
2023-05-19T18:55:43.444Z,38.08
2023-05-19T18:58:12.882Z,28.95
2023-05-19T19:00:41.952Z,38.78
2023-05-19T19:03:13.018Z,35.03
2023-05-19T19:05:42.141Z,33.47
2023-05-19T19:08:11.209Z,32.88
2023-05-19T19:10:41.816Z,37.45
2023-05-19T19:13:10.913Z,32.03
2023-05-19T19:15:40.933Z,36.65
2023-05-19T19:18:10.175Z,35.10
2023-05-19T19:20:39.314Z,34.72
2023-05-19T19:23:08.588Z,36.97
2023-05-19T19:25:37.834Z,34.10
2023-05-19T19:28:07.201Z,30.77
2023-05-19T19:30:36.502Z,35.83
2023-05-19T19:33:06.772Z,32.13
2023-05-19T19:35:36.215Z,39.22
2023-05-19T19:38:05.335Z,31.85
2023-05-19T19:40:34.701Z,34.05
2023-05-19T19:43:04.014Z,31.95
2023-05-19T19:45:33.433Z,31.55
2023-05-19T19:48:02.888Z,31.10
2023-05-19T19:50:32.614Z,32.90
2023-05-19T19:53:02.315Z,32.60
2023-05-19T19:55:34.597Z,33.95
2023-05-19T19:58:03.636Z,33.55
2023-05-19T20:00:32.804Z,31.52
2023-05-19T20:03:05.430Z,34.67
2023-05-19T20:05:35.007Z,35.50
2023-05-19T20:08:04.051Z,29.30
2023-05-19T20:10:33.399Z,31.40
2023-05-19T20:13:02.594Z,31.30
2023-05-19T20:15:31.708Z,36.78
2023-05-19T20:18:04.753Z,37.00
2023-05-19T20:20:34.170Z,31.08
2023-05-19T20:23:03.372Z,38.25
2023-05-19T20:25:32.908Z,35.03
2023-05-19T20:28:03.270Z,34.45
2023-05-19T20:30:32.458Z,33.72
2023-05-19T20:33:01.833Z,40.65
2023-05-19T20:35:31.082Z,39.28
2023-05-19T20:38:00.177Z,39.33
2023-05-19T20:40:29.300Z,34.92
2023-05-19T20:42:58.436Z,33.13
2023-05-19T20:45:27.523Z,34.78
2023-05-19T20:47:56.819Z,37.33
2023-05-19T20:50:25.956Z,36.30
2023-05-19T20:52:54.947Z,32.08
2023-05-19T20:55:24.387Z,40.83
2023-05-19T20:57:53.523Z,32.25
2023-05-19T21:00:22.767Z,33.80
2023-05-19T21:02:51.835Z,35.47
2023-05-19T21:05:20.998Z,32.67
2023-05-19T21:07:50.040Z,38.10
2023-05-19T21:10:19.176Z,34.78
2023-05-19T21:12:48.431Z,35.20
2023-05-19T21:15:17.624Z,37.33
2023-05-19T21:17:47.190Z,36.83
2023-05-19T21:20:16.265Z,38.97
2023-05-19T21:22:45.321Z,43.08
2023-05-19T21:25:14.512Z,34.83
2023-05-19T21:27:43.571Z,30.15
2023-05-19T21:30:13.113Z,35.75
2023-05-19T21:32:42.481Z,38.35
2023-05-19T21:35:11.703Z,33.38
2023-05-19T21:37:40.704Z,33.97
2023-05-19T21:40:10.936Z,32.92
2023-05-19T21:42:39.968Z,35.08
2023-05-19T21:45:09.499Z,35.58
2023-05-19T21:47:38.503Z,32.72
2023-05-19T21:50:08.139Z,39.10
2023-05-19T21:52:37.738Z,37.25
2023-05-19T21:55:07.349Z,40.65
2023-05-19T21:57:36.394Z,44.78
2023-05-19T22:00:07.648Z,45.13
2023-05-19T22:02:36.906Z,49.15
2023-05-19T22:05:06.083Z,48.85
2023-05-19T22:07:35.028Z,55.83
2023-05-19T22:10:04.062Z,52.03
2023-05-19T22:12:34.075Z,55.88
2023-05-19T22:15:04.036Z,48.17
2023-05-19T22:17:33.042Z,44.55
2023-05-19T22:20:02.347Z,43.80
2023-05-19T22:22:31.329Z,43.75
2023-05-19T22:25:00.647Z,39.67
2023-05-19T22:27:29.668Z,48.42
2023-05-19T22:30:00.805Z,45.30
2023-05-19T22:32:30.096Z,38.92
2023-05-19T22:34:59.144Z,39.13
2023-05-19T22:37:30.115Z,42.67
2023-05-19T22:39:59.114Z,45.55
2023-05-19T22:42:28.229Z,48.78
2023-05-19T22:44:57.390Z,44.70
2023-05-19T22:47:26.539Z,43.35
2023-05-19T22:49:57.017Z,41.15
2023-05-19T22:52:26.399Z,46.90
2023-05-19T22:54:55.709Z,48.42
2023-05-19T22:57:24.741Z,47.45
2023-05-19T22:59:53.764Z,45.10
2023-05-19T23:02:22.782Z,43.80
2023-05-19T23:04:51.774Z,44.50
2023-05-19T23:07:20.838Z,40.03
2023-05-19T23:09:49.856Z,42.45
2023-05-19T23:12:18.820Z,41.92
2023-05-19T23:14:48.313Z,42.20
2023-05-19T23:17:17.321Z,40.10
2023-05-19T23:19:46.306Z,46.60
2023-05-19T23:22:15.307Z,45.78
2023-05-19T23:24:44.393Z,48.38
2023-05-19T23:27:13.475Z,45.08
2023-05-19T23:29:42.525Z,41.30
2023-05-19T23:32:11.830Z,37.08
2023-05-19T23:34:40.852Z,44.08
2023-05-19T23:37:09.862Z,42.95
2023-05-19T23:39:39.473Z,44.58
2023-05-19T23:42:08.566Z,52.20
2023-05-19T23:44:37.761Z,55.50
2023-05-19T23:47:07.391Z,42.78
2023-05-19T23:49:36.964Z,52.60
2023-05-19T23:52:06.128Z,50.30
2023-05-19T23:54:35.119Z,49.15
2023-05-19T23:57:05.318Z,48.97
2023-05-19T23:59:34.432Z,43.42
